Terminal Aerodrome Forecast
Issued by NWS Duluth, MN

Home | Current Version | Previous Version | Text Only | Print | Product List | Glossary On
Versions: 1 2 3 4 5 6 7 8 9 10 11 12 13 14 15 16 17 18 19 20 21 22 23 24 25
000
FTUS43 KDLH 221124
TAFDLH
TAF
KDLH 221124Z 2212/2312 00000KT P6SM SKC
     FM221900 14006KT P6SM SCT200
     FM222200 10007KT P6SM VCSH BKN050
      TEMPO 2300/2302 4SM -SN OVC030
     FM230200 09008KT 2SM -SN OVC025
     FM230600 09008KT 1SM -SN OVC008
     FM230900 08008KT 3/4SM -SN OVC010=

USA.gov is the U.S. government's official web portal to all federal, state and local government web resources and services.